sensor_id;sensor_type;location;lat;lon;timestamp;temperature;humidity
57566;DHT22;63999;43.882;-0.310;2023-04-15T00:02:14;12.50;81.70
57566;DHT22;63999;43.882;-0.310;2023-04-15T00:04:40;12.50;81.40
57566;DHT22;63999;43.882;-0.310;2023-04-15T00:07:06;12.50;81.60
57566;DHT22;63999;43.882;-0.310;2023-04-15T00:09:33;12.50;81.50
57566;DHT22;63999;43.882;-0.310;2023-04-15T00:11:58;12.50;81.60
57566;DHT22;63999;43.882;-0.310;2023-04-15T00:14:24;12.50;81.40
57566;DHT22;63999;43.882;-0.310;2023-04-15T00:16:51;12.50;81.20
57566;DHT22;63999;43.882;-0.310;2023-04-15T00:19:20;12.50;81.10
57566;DHT22;63999;43.882;-0.310;2023-04-15T00:21:46;12.40;81.30
57566;DHT22;63999;43.882;-0.310;2023-04-15T00:24:12;12.40;81.60
57566;DHT22;63999;43.882;-0.310;2023-04-15T00:26:38;12.30;81.50
57566;DHT22;63999;43.882;-0.310;2023-04-15T00:29:04;12.30;81.20
57566;DHT22;63999;43.882;-0.310;2023-04-15T00:31:30;12.30;81.50
57566;DHT22;63999;43.882;-0.310;2023-04-15T00:33:56;12.30;81.50
57566;DHT22;63999;43.882;-0.310;2023-04-15T00:36:23;12.30;81.60
57566;DHT22;63999;43.882;-0.310;2023-04-15T00:38:49;12.30;81.80
57566;DHT22;63999;43.882;-0.310;2023-04-15T00:41:14;12.30;81.60
57566;DHT22;63999;43.882;-0.310;2023-04-15T00:43:41;12.30;81.30
57566;DHT22;63999;43.882;-0.310;2023-04-15T00:46:08;12.20;82.00
57566;DHT22;63999;43.882;-0.310;2023-04-15T00:48:35;12.30;81.90
57566;DHT22;63999;43.882;-0.310;2023-04-15T00:51:01;12.30;81.70
57566;DHT22;63999;43.882;-0.310;2023-04-15T00:53:27;12.30;81.70
57566;DHT22;63999;43.882;-0.310;2023-04-15T00:55:53;12.40;81.30
57566;DHT22;63999;43.882;-0.310;2023-04-15T00:58:19;12.30;81.20
57566;DHT22;63999;43.882;-0.310;2023-04-15T01:00:45;12.30;81.60
57566;DHT22;63999;43.882;-0.310;2023-04-15T01:03:11;12.40;81.40
57566;DHT22;63999;43.882;-0.310;2023-04-15T01:05:37;12.30;81.40
57566;DHT22;63999;43.882;-0.310;2023-04-15T01:08:04;12.30;81.40
57566;DHT22;63999;43.882;-0.310;2023-04-15T01:10:30;12.30;81.50
57566;DHT22;63999;43.882;-0.310;2023-04-15T01:12:56;12.20;81.50
57566;DHT22;63999;43.882;-0.310;2023-04-15T01:15:23;12.30;81.40
57566;DHT22;63999;43.882;-0.310;2023-04-15T01:17:49;12.30;81.80
57566;DHT22;63999;43.882;-0.310;2023-04-15T01:20:15;12.30;81.50
57566;DHT22;63999;43.882;-0.310;2023-04-15T01:22:41;12.30;81.90
57566;DHT22;63999;43.882;-0.310;2023-04-15T01:25:17;12.40;81.60
57566;DHT22;63999;43.882;-0.310;2023-04-15T01:27:43;12.40;82.10
57566;DHT22;63999;43.882;-0.310;2023-04-15T01:30:10;12.40;81.60
57566;DHT22;63999;43.882;-0.310;2023-04-15T01:32:36;12.40;81.60
57566;DHT22;63999;43.882;-0.310;2023-04-15T01:35:02;12.30;81.50
57566;DHT22;63999;43.882;-0.310;2023-04-15T01:37:28;12.30;81.50
57566;DHT22;63999;43.882;-0.310;2023-04-15T01:39:54;12.30;81.60
57566;DHT22;63999;43.882;-0.310;2023-04-15T01:42:21;12.30;81.30
57566;DHT22;63999;43.882;-0.310;2023-04-15T01:44:47;12.20;81.30
57566;DHT22;63999;43.882;-0.310;2023-04-15T01:47:13;12.10;81.80
57566;DHT22;63999;43.882;-0.310;2023-04-15T01:49:39;12.10;81.40
57566;DHT22;63999;43.882;-0.310;2023-04-15T01:52:05;12.20;81.90
57566;DHT22;63999;43.882;-0.310;2023-04-15T01:54:31;12.20;82.00
57566;DHT22;63999;43.882;-0.310;2023-04-15T01:56:57;12.30;81.60
57566;DHT22;63999;43.882;-0.310;2023-04-15T01:59:23;12.30;81.60
57566;DHT22;63999;43.882;-0.310;2023-04-15T02:01:49;12.30;81.10
57566;DHT22;63999;43.882;-0.310;2023-04-15T02:04:15;12.20;81.10
57566;DHT22;63999;43.882;-0.310;2023-04-15T02:06:42;12.20;81.50
57566;DHT22;63999;43.882;-0.310;2023-04-15T02:09:08;12.20;81.50
57566;DHT22;63999;43.882;-0.310;2023-04-15T02:11:35;12.20;81.20
57566;DHT22;63999;43.882;-0.310;2023-04-15T02:14:02;12.20;81.20
57566;DHT22;63999;43.882;-0.310;2023-04-15T02:16:30;12.10;81.20
57566;DHT22;63999;43.882;-0.310;2023-04-15T02:18:56;12.10;81.70
57566;DHT22;63999;43.882;-0.310;2023-04-15T02:21:22;12.10;81.20
57566;DHT22;63999;43.882;-0.310;2023-04-15T02:23:48;12.10;82.00
57566;DHT22;63999;43.882;-0.310;2023-04-15T02:26:13;12.20;81.50
57566;DHT22;63999;43.882;-0.310;2023-04-15T02:28:39;12.20;81.20
57566;DHT22;63999;43.882;-0.310;2023-04-15T02:31:06;12.10;81.10
57566;DHT22;63999;43.882;-0.310;2023-04-15T02:33:32;12.10;81.40
57566;DHT22;63999;43.882;-0.310;2023-04-15T02:35:58;12.10;81.20
57566;DHT22;63999;43.882;-0.310;2023-04-15T02:38:24;12.10;81.10
57566;DHT22;63999;43.882;-0.310;2023-04-15T02:40:50;12.10;81.20
57566;DHT22;63999;43.882;-0.310;2023-04-15T02:43:16;11.90;81.20
57566;DHT22;63999;43.882;-0.310;2023-04-15T02:45:42;11.90;81.60
57566;DHT22;63999;43.882;-0.310;2023-04-15T02:48:08;11.90;81.80
57566;DHT22;63999;43.882;-0.310;2023-04-15T02:50:34;11.90;81.60
57566;DHT22;63999;43.882;-0.310;2023-04-15T02:53:02;11.90;81.30
57566;DHT22;63999;43.882;-0.310;2023-04-15T02:55:28;11.90;81.20
57566;DHT22;63999;43.882;-0.310;2023-04-15T02:57:54;11.90;81.30
57566;DHT22;63999;43.882;-0.310;2023-04-15T03:00:20;11.90;81.60
57566;DHT22;63999;43.882;-0.310;2023-04-15T03:02:46;12.00;81.40
57566;DHT22;63999;43.882;-0.310;2023-04-15T03:05:13;12.00;81.40
57566;DHT22;63999;43.882;-0.310;2023-04-15T03:07:38;12.00;81.20
57566;DHT22;63999;43.882;-0.310;2023-04-15T03:10:07;11.90;81.00
57566;DHT22;63999;43.882;-0.310;2023-04-15T03:12:33;11.90;81.30
57566;DHT22;63999;43.882;-0.310;2023-04-15T03:14:59;11.90;81.80
57566;DHT22;63999;43.882;-0.310;2023-04-15T03:17:26;11.90;81.20
57566;DHT22;63999;43.882;-0.310;2023-04-15T03:19:52;11.90;81.10
57566;DHT22;63999;43.882;-0.310;2023-04-15T03:22:18;11.80;81.70
57566;DHT22;63999;43.882;-0.310;2023-04-15T03:24:43;11.70;81.40
57566;DHT22;63999;43.882;-0.310;2023-04-15T03:27:09;11.70;81.20
57566;DHT22;63999;43.882;-0.310;2023-04-15T03:29:35;11.80;81.70
57566;DHT22;63999;43.882;-0.310;2023-04-15T03:32:01;11.90;81.50
57566;DHT22;63999;43.882;-0.310;2023-04-15T03:34:26;11.90;81.10
57566;DHT22;63999;43.882;-0.310;2023-04-15T03:36:52;11.80;81.10
57566;DHT22;63999;43.882;-0.310;2023-04-15T03:39:18;11.90;81.30
57566;DHT22;63999;43.882;-0.310;2023-04-15T03:41:44;11.70;81.50
57566;DHT22;63999;43.882;-0.310;2023-04-15T03:44:10;11.80;82.00
57566;DHT22;63999;43.882;-0.310;2023-04-15T03:46:35;11.90;81.50
57566;DHT22;63999;43.882;-0.310;2023-04-15T03:49:01;11.90;81.70
57566;DHT22;63999;43.882;-0.310;2023-04-15T03:51:27;11.90;81.70
57566;DHT22;63999;43.882;-0.310;2023-04-15T03:53:53;11.90;81.60
57566;DHT22;63999;43.882;-0.310;2023-04-15T03:56:18;11.90;81.70
57566;DHT22;63999;43.882;-0.310;2023-04-15T03:58:44;11.90;81.70
57566;DHT22;63999;43.882;-0.310;2023-04-15T04:01:10;12.00;81.40
57566;DHT22;63999;43.882;-0.310;2023-04-15T04:03:36;12.00;81.50
57566;DHT22;63999;43.882;-0.310;2023-04-15T04:06:02;12.00;81.50
57566;DHT22;63999;43.882;-0.310;2023-04-15T04:08:28;12.00;81.20
57566;DHT22;63999;43.882;-0.310;2023-04-15T04:10:54;12.00;81.70
57566;DHT22;63999;43.882;-0.310;2023-04-15T04:13:20;12.00;81.50
57566;DHT22;63999;43.882;-0.310;2023-04-15T04:15:46;12.00;81.50
57566;DHT22;63999;43.882;-0.310;2023-04-15T04:18:12;12.00;81.10
57566;DHT22;63999;43.882;-0.310;2023-04-15T04:20:37;12.10;81.10
57566;DHT22;63999;43.882;-0.310;2023-04-15T04:23:03;12.00;81.30
57566;DHT22;63999;43.882;-0.310;2023-04-15T04:25:29;12.00;81.20
57566;DHT22;63999;43.882;-0.310;2023-04-15T04:27:55;12.00;81.70
57566;DHT22;63999;43.882;-0.310;2023-04-15T04:30:20;12.00;81.40
57566;DHT22;63999;43.882;-0.310;2023-04-15T04:32:46;12.00;81.40
57566;DHT22;63999;43.882;-0.310;2023-04-15T04:35:12;12.00;81.50
57566;DHT22;63999;43.882;-0.310;2023-04-15T04:37:38;11.90;81.00
57566;DHT22;63999;43.882;-0.310;2023-04-15T04:40:04;11.90;81.10
57566;DHT22;63999;43.882;-0.310;2023-04-15T04:42:30;11.90;81.30
57566;DHT22;63999;43.882;-0.310;2023-04-15T04:44:56;11.90;81.50
57566;DHT22;63999;43.882;-0.310;2023-04-15T04:47:22;11.90;81.10
57566;DHT22;63999;43.882;-0.310;2023-04-15T04:49:48;11.90;81.40
57566;DHT22;63999;43.882;-0.310;2023-04-15T04:52:14;11.90;81.60
57566;DHT22;63999;43.882;-0.310;2023-04-15T04:54:41;12.00;81.70
57566;DHT22;63999;43.882;-0.310;2023-04-15T04:57:10;12.00;81.10
57566;DHT22;63999;43.882;-0.310;2023-04-15T04:59:38;11.90;81.40
57566;DHT22;63999;43.882;-0.310;2023-04-15T05:02:04;11.90;81.10
57566;DHT22;63999;43.882;-0.310;2023-04-15T05:04:30;11.90;82.10
57566;DHT22;63999;43.882;-0.310;2023-04-15T05:06:57;12.00;82.00
57566;DHT22;63999;43.882;-0.310;2023-04-15T05:09:24;12.00;81.50
57566;DHT22;63999;43.882;-0.310;2023-04-15T05:11:50;11.90;81.50
57566;DHT22;63999;43.882;-0.310;2023-04-15T05:14:15;11.90;81.20
57566;DHT22;63999;43.882;-0.310;2023-04-15T05:16:41;11.90;81.30
57566;DHT22;63999;43.882;-0.310;2023-04-15T05:19:07;11.90;81.40
57566;DHT22;63999;43.882;-0.310;2023-04-15T05:21:33;11.80;81.70
57566;DHT22;63999;43.882;-0.310;2023-04-15T05:23:59;11.70;81.40
57566;DHT22;63999;43.882;-0.310;2023-04-15T05:26:25;11.80;81.80
57566;DHT22;63999;43.882;-0.310;2023-04-15T05:28:52;11.70;82.10
57566;DHT22;63999;43.882;-0.310;2023-04-15T05:31:18;11.90;82.00
57566;DHT22;63999;43.882;-0.310;2023-04-15T05:33:44;11.90;81.60
57566;DHT22;63999;43.882;-0.310;2023-04-15T05:36:10;11.90;82.10
57566;DHT22;63999;43.882;-0.310;2023-04-15T05:38:36;11.90;81.20
57566;DHT22;63999;43.882;-0.310;2023-04-15T05:41:02;11.80;81.70
57566;DHT22;63999;43.882;-0.310;2023-04-15T05:43:28;11.70;81.60
57566;DHT22;63999;43.882;-0.310;2023-04-15T05:45:55;11.70;81.60
57566;DHT22;63999;43.882;-0.310;2023-04-15T05:48:21;11.70;81.60
57566;DHT22;63999;43.882;-0.310;2023-04-15T05:50:47;11.70;82.00
57566;DHT22;63999;43.882;-0.310;2023-04-15T05:53:12;11.80;82.50
57566;DHT22;63999;43.882;-0.310;2023-04-15T05:55:38;11.90;82.00
57566;DHT22;63999;43.882;-0.310;2023-04-15T05:58:04;12.00;81.50
57566;DHT22;63999;43.882;-0.310;2023-04-15T06:00:30;11.90;81.50
57566;DHT22;63999;43.882;-0.310;2023-04-15T06:02:56;11.90;81.80
57566;DHT22;63999;43.882;-0.310;2023-04-15T06:05:23;11.80;81.60
57566;DHT22;63999;43.882;-0.310;2023-04-15T06:07:49;11.70;82.20
57566;DHT22;63999;43.882;-0.310;2023-04-15T06:10:15;11.90;81.70
57566;DHT22;63999;43.882;-0.310;2023-04-15T06:12:41;11.90;82.00
57566;DHT22;63999;43.882;-0.310;2023-04-15T06:15:08;11.70;81.60
57566;DHT22;63999;43.882;-0.310;2023-04-15T06:17:36;11.60;81.90
57566;DHT22;63999;43.882;-0.310;2023-04-15T06:20:03;11.70;82.80
57566;DHT22;63999;43.882;-0.310;2023-04-15T06:22:29;11.60;82.20
57566;DHT22;63999;43.882;-0.310;2023-04-15T06:24:55;11.50;82.50
57566;DHT22;63999;43.882;-0.310;2023-04-15T06:27:20;11.50;82.80
57566;DHT22;63999;43.882;-0.310;2023-04-15T06:29:47;11.50;82.70
57566;DHT22;63999;43.882;-0.310;2023-04-15T06:32:13;11.50;82.50
57566;DHT22;63999;43.882;-0.310;2023-04-15T06:34:39;11.50;82.90
57566;DHT22;63999;43.882;-0.310;2023-04-15T06:37:04;11.70;82.80
57566;DHT22;63999;43.882;-0.310;2023-04-15T06:39:31;11.50;82.30
57566;DHT22;63999;43.882;-0.310;2023-04-15T06:41:57;11.60;82.70
57566;DHT22;63999;43.882;-0.310;2023-04-15T06:44:22;11.70;82.20
57566;DHT22;63999;43.882;-0.310;2023-04-15T06:46:48;11.70;82.20
57566;DHT22;63999;43.882;-0.310;2023-04-15T06:49:14;11.70;82.40
57566;DHT22;63999;43.882;-0.310;2023-04-15T06:51:41;11.70;82.30
57566;DHT22;63999;43.882;-0.310;2023-04-15T06:54:07;11.70;81.80
57566;DHT22;63999;43.882;-0.310;2023-04-15T06:56:35;11.70;82.00
57566;DHT22;63999;43.882;-0.310;2023-04-15T06:59:05;11.70;82.10
57566;DHT22;63999;43.882;-0.310;2023-04-15T07:01:34;11.70;81.90
57566;DHT22;63999;43.882;-0.310;2023-04-15T07:04:03;11.70;82.30
57566;DHT22;63999;43.882;-0.310;2023-04-15T07:06:29;11.70;82.10
57566;DHT22;63999;43.882;-0.310;2023-04-15T07:08:57;11.90;82.10
57566;DHT22;63999;43.882;-0.310;2023-04-15T07:11:26;11.90;82.30
57566;DHT22;63999;43.882;-0.310;2023-04-15T07:13:53;11.90;81.50
57566;DHT22;63999;43.882;-0.310;2023-04-15T07:16:19;11.90;81.40
57566;DHT22;63999;43.882;-0.310;2023-04-15T07:18:44;12.00;81.80
57566;DHT22;63999;43.882;-0.310;2023-04-15T07:21:11;12.00;81.90
57566;DHT22;63999;43.882;-0.310;2023-04-15T07:23:37;12.00;81.80
57566;DHT22;63999;43.882;-0.310;2023-04-15T07:26:03;12.10;81.80
57566;DHT22;63999;43.882;-0.310;2023-04-15T07:28:28;12.10;81.30
57566;DHT22;63999;43.882;-0.310;2023-04-15T07:30:55;12.10;81.40
57566;DHT22;63999;43.882;-0.310;2023-04-15T07:33:23;12.20;81.50
57566;DHT22;63999;43.882;-0.310;2023-04-15T07:35:49;12.20;81.20
57566;DHT22;63999;43.882;-0.310;2023-04-15T07:38:15;12.20;81.40
57566;DHT22;63999;43.882;-0.310;2023-04-15T07:40:41;12.20;81.20
57566;DHT22;63999;43.882;-0.310;2023-04-15T07:43:07;12.20;81.50
57566;DHT22;63999;43.882;-0.310;2023-04-15T07:45:33;12.30;81.40
57566;DHT22;63999;43.882;-0.310;2023-04-15T07:48:01;12.30;81.20
57566;DHT22;63999;43.882;-0.310;2023-04-15T07:50:29;12.30;82.50
57566;DHT22;63999;43.882;-0.310;2023-04-15T07:52:55;12.40;82.40
57566;DHT22;63999;43.882;-0.310;2023-04-15T07:55:21;12.50;81.50
57566;DHT22;63999;43.882;-0.310;2023-04-15T07:57:48;12.50;82.20
57566;DHT22;63999;43.882;-0.310;2023-04-15T08:00:14;12.50;81.80
57566;DHT22;63999;43.882;-0.310;2023-04-15T08:02:43;12.60;81.00
57566;DHT22;63999;43.882;-0.310;2023-04-15T08:05:12;12.60;81.00
57566;DHT22;63999;43.882;-0.310;2023-04-15T08:07:38;12.60;81.00
57566;DHT22;63999;43.882;-0.310;2023-04-15T08:10:04;12.50;80.70
57566;DHT22;63999;43.882;-0.310;2023-04-15T08:12:31;12.50;81.90
57566;DHT22;63999;43.882;-0.310;2023-04-15T08:14:56;12.50;80.60
57566;DHT22;63999;43.882;-0.310;2023-04-15T08:17:23;12.50;81.20
57566;DHT22;63999;43.882;-0.310;2023-04-15T08:19:49;12.60;81.30
57566;DHT22;63999;43.882;-0.310;2023-04-15T08:22:14;12.60;80.40
57566;DHT22;63999;43.882;-0.310;2023-04-15T08:24:41;12.60;81.20
57566;DHT22;63999;43.882;-0.310;2023-04-15T08:27:07;12.80;80.90
57566;DHT22;63999;43.882;-0.310;2023-04-15T08:29:33;12.80;80.00
57566;DHT22;63999;43.882;-0.310;2023-04-15T08:32:00;12.70;80.30
57566;DHT22;63999;43.882;-0.310;2023-04-15T08:34:26;12.70;80.70
57566;DHT22;63999;43.882;-0.310;2023-04-15T08:36:52;12.60;81.10
57566;DHT22;63999;43.882;-0.310;2023-04-15T08:39:18;12.70;79.70
57566;DHT22;63999;43.882;-0.310;2023-04-15T08:41:51;12.70;80.30
57566;DHT22;63999;43.882;-0.310;2023-04-15T08:44:22;12.70;80.60
57566;DHT22;63999;43.882;-0.310;2023-04-15T08:46:50;12.70;82.20
57566;DHT22;63999;43.882;-0.310;2023-04-15T08:49:17;12.90;79.60
57566;DHT22;63999;43.882;-0.310;2023-04-15T08:51:44;12.70;79.50
57566;DHT22;63999;43.882;-0.310;2023-04-15T08:54:10;13.10;78.50
57566;DHT22;63999;43.882;-0.310;2023-04-15T08:56:37;12.80;78.90
57566;DHT22;63999;43.882;-0.310;2023-04-15T08:59:04;12.80;78.90
57566;DHT22;63999;43.882;-0.310;2023-04-15T09:01:31;12.80;79.00
57566;DHT22;63999;43.882;-0.310;2023-04-15T09:03:58;12.90;79.50
57566;DHT22;63999;43.882;-0.310;2023-04-15T09:06:24;13.10;78.70
57566;DHT22;63999;43.882;-0.310;2023-04-15T09:08:51;13.00;79.00
57566;DHT22;63999;43.882;-0.310;2023-04-15T09:11:17;12.80;79.90
57566;DHT22;63999;43.882;-0.310;2023-04-15T09:13:44;13.00;79.80
57566;DHT22;63999;43.882;-0.310;2023-04-15T09:16:10;13.00;79.10
57566;DHT22;63999;43.882;-0.310;2023-04-15T09:18:37;13.10;77.30
57566;DHT22;63999;43.882;-0.310;2023-04-15T09:21:10;13.10;77.10
57566;DHT22;63999;43.882;-0.310;2023-04-15T09:23:37;12.90;78.70
57566;DHT22;63999;43.882;-0.310;2023-04-15T09:26:04;12.90;78.00
57566;DHT22;63999;43.882;-0.310;2023-04-15T09:28:31;12.70;77.80
57566;DHT22;63999;43.882;-0.310;2023-04-15T09:30:57;12.70;78.10
57566;DHT22;63999;43.882;-0.310;2023-04-15T09:33:24;12.80;77.80
57566;DHT22;63999;43.882;-0.310;2023-04-15T09:36:03;12.90;77.30
57566;DHT22;63999;43.882;-0.310;2023-04-15T09:38:29;13.00;77.20
57566;DHT22;63999;43.882;-0.310;2023-04-15T09:40:56;12.90;78.80
57566;DHT22;63999;43.882;-0.310;2023-04-15T09:43:28;13.00;77.40
57566;DHT22;63999;43.882;-0.310;2023-04-15T09:46:01;12.90;76.80
57566;DHT22;63999;43.882;-0.310;2023-04-15T09:48:27;13.00;76.80
57566;DHT22;63999;43.882;-0.310;2023-04-15T09:50:59;13.00;77.10
57566;DHT22;63999;43.882;-0.310;2023-04-15T09:53:26;12.90;77.20
57566;DHT22;63999;43.882;-0.310;2023-04-15T09:55:57;12.90;77.30
57566;DHT22;63999;43.882;-0.310;2023-04-15T09:58:24;12.80;77.80
57566;DHT22;63999;43.882;-0.310;2023-04-15T10:00:51;12.80;77.10
57566;DHT22;63999;43.882;-0.310;2023-04-15T10:05:48;12.90;76.90
57566;DHT22;63999;43.882;-0.310;2023-04-15T10:08:17;12.80;76.80
57566;DHT22;63999;43.882;-0.310;2023-04-15T10:10:45;12.70;76.70
57566;DHT22;63999;43.882;-0.310;2023-04-15T10:13:19;12.80;77.60
57566;DHT22;63999;43.882;-0.310;2023-04-15T10:16:21;12.80;76.90
57566;DHT22;63999;43.882;-0.310;2023-04-15T10:18:53;13.00;76.70
57566;DHT22;63999;43.882;-0.310;2023-04-15T10:21:20;12.90;76.40
57566;DHT22;63999;43.882;-0.310;2023-04-15T10:23:47;13.00;76.60
57566;DHT22;63999;43.882;-0.310;2023-04-15T10:26:14;12.90;76.70
57566;DHT22;63999;43.882;-0.310;2023-04-15T10:28:41;13.00;76.70
57566;DHT22;63999;43.882;-0.310;2023-04-15T10:31:08;13.20;75.90
57566;DHT22;63999;43.882;-0.310;2023-04-15T10:33:36;13.00;75.80
57566;DHT22;63999;43.882;-0.310;2023-04-15T10:36:03;13.00;77.60
57566;DHT22;63999;43.882;-0.310;2023-04-15T10:38:39;13.00;76.10
57566;DHT22;63999;43.882;-0.310;2023-04-15T10:43:51;12.90;77.00
57566;DHT22;63999;43.882;-0.310;2023-04-15T10:46:38;12.90;75.90
57566;DHT22;63999;43.882;-0.310;2023-04-15T10:51:37;12.90;76.20
57566;DHT22;63999;43.882;-0.310;2023-04-15T10:54:30;12.90;76.50
57566;DHT22;63999;43.882;-0.310;2023-04-15T10:59:38;12.90;75.80
57566;DHT22;63999;43.882;-0.310;2023-04-15T11:02:05;13.00;75.80
57566;DHT22;63999;43.882;-0.310;2023-04-15T11:04:57;12.90;75.50
57566;DHT22;63999;43.882;-0.310;2023-04-15T11:07:56;12.90;77.00
57566;DHT22;63999;43.882;-0.310;2023-04-15T11:13:13;13.30;75.30
57566;DHT22;63999;43.882;-0.310;2023-04-15T11:15:44;13.20;74.70
57566;DHT22;63999;43.882;-0.310;2023-04-15T11:18:12;13.10;75.00
57566;DHT22;63999;43.882;-0.310;2023-04-15T11:20:39;13.10;74.80
57566;DHT22;63999;43.882;-0.310;2023-04-15T11:23:05;13.00;74.90
57566;DHT22;63999;43.882;-0.310;2023-04-15T11:25:33;13.20;75.00
57566;DHT22;63999;43.882;-0.310;2023-04-15T11:28:00;13.20;74.20
57566;DHT22;63999;43.882;-0.310;2023-04-15T11:30:31;13.20;76.20
57566;DHT22;63999;43.882;-0.310;2023-04-15T11:33:08;13.30;74.40
57566;DHT22;63999;43.882;-0.310;2023-04-15T11:35:35;13.30;74.40
57566;DHT22;63999;43.882;-0.310;2023-04-15T11:38:04;13.10;74.10
57566;DHT22;63999;43.882;-0.310;2023-04-15T11:40:33;13.00;74.60
57566;DHT22;63999;43.882;-0.310;2023-04-15T11:45:37;13.10;75.30
57566;DHT22;63999;43.882;-0.310;2023-04-15T11:48:08;13.30;74.20
57566;DHT22;63999;43.882;-0.310;2023-04-15T11:50:34;13.30;75.10
57566;DHT22;63999;43.882;-0.310;2023-04-15T11:53:02;13.10;74.30
57566;DHT22;63999;43.882;-0.310;2023-04-15T11:55:30;13.10;74.70
57566;DHT22;63999;43.882;-0.310;2023-04-15T11:58:12;13.10;75.30
57566;DHT22;63999;43.882;-0.310;2023-04-15T12:00:39;13.20;73.90
57566;DHT22;63999;43.882;-0.310;2023-04-15T12:03:41;13.10;74.20
57566;DHT22;63999;43.882;-0.310;2023-04-15T12:08:55;13.10;74.10
57566;DHT22;63999;43.882;-0.310;2023-04-15T12:14:08;13.10;74.10
57566;DHT22;63999;43.882;-0.310;2023-04-15T12:16:35;13.10;74.10
57566;DHT22;63999;43.882;-0.310;2023-04-15T12:19:05;13.20;75.00
57566;DHT22;63999;43.882;-0.310;2023-04-15T12:21:37;13.30;72.90
57566;DHT22;63999;43.882;-0.310;2023-04-15T12:24:05;13.30;74.80
57566;DHT22;63999;43.882;-0.310;2023-04-15T12:26:54;13.30;73.80
57566;DHT22;63999;43.882;-0.310;2023-04-15T12:29:26;13.20;73.20
57566;DHT22;63999;43.882;-0.310;2023-04-15T12:32:17;13.30;74.70
57566;DHT22;63999;43.882;-0.310;2023-04-15T12:34:48;13.30;73.40
57566;DHT22;63999;43.882;-0.310;2023-04-15T12:37:15;13.20;74.10
57566;DHT22;63999;43.882;-0.310;2023-04-15T12:39:42;13.20;73.70
57566;DHT22;63999;43.882;-0.310;2023-04-15T12:42:09;13.20;73.60
57566;DHT22;63999;43.882;-0.310;2023-04-15T12:44:36;13.30;73.60
57566;DHT22;63999;43.882;-0.310;2023-04-15T12:47:03;13.30;73.60
57566;DHT22;63999;43.882;-0.310;2023-04-15T12:49:30;13.30;72.20
57566;DHT22;63999;43.882;-0.310;2023-04-15T12:51:58;13.30;73.20
57566;DHT22;63999;43.882;-0.310;2023-04-15T12:54:25;13.30;73.30
57566;DHT22;63999;43.882;-0.310;2023-04-15T12:56:52;13.50;72.90
57566;DHT22;63999;43.882;-0.310;2023-04-15T12:59:19;13.60;73.10
57566;DHT22;63999;43.882;-0.310;2023-04-15T13:01:46;13.70;72.50
57566;DHT22;63999;43.882;-0.310;2023-04-15T13:04:13;13.60;71.90
57566;DHT22;63999;43.882;-0.310;2023-04-15T13:06:39;13.50;72.40
57566;DHT22;63999;43.882;-0.310;2023-04-15T13:09:04;13.50;72.30
57566;DHT22;63999;43.882;-0.310;2023-04-15T13:11:33;13.30;71.90
57566;DHT22;63999;43.882;-0.310;2023-04-15T13:14:03;13.30;72.60
57566;DHT22;63999;43.882;-0.310;2023-04-15T13:16:29;13.30;71.50
57566;DHT22;63999;43.882;-0.310;2023-04-15T13:18:57;13.40;72.40
57566;DHT22;63999;43.882;-0.310;2023-04-15T13:21:23;13.50;72.60
57566;DHT22;63999;43.882;-0.310;2023-04-15T13:23:49;13.70;72.10
57566;DHT22;63999;43.882;-0.310;2023-04-15T13:26:16;13.70;72.10
57566;DHT22;63999;43.882;-0.310;2023-04-15T13:28:42;13.70;71.40
57566;DHT22;63999;43.882;-0.310;2023-04-15T13:31:08;13.90;71.20
57566;DHT22;63999;43.882;-0.310;2023-04-15T13:33:34;13.90;72.40
57566;DHT22;63999;43.882;-0.310;2023-04-15T13:35:59;13.90;72.00
57566;DHT22;63999;43.882;-0.310;2023-04-15T13:38:25;13.90;71.10
57566;DHT22;63999;43.882;-0.310;2023-04-15T13:40:51;13.70;72.00
57566;DHT22;63999;43.882;-0.310;2023-04-15T13:43:17;13.60;72.50
57566;DHT22;63999;43.882;-0.310;2023-04-15T13:45:43;13.50;71.80
57566;DHT22;63999;43.882;-0.310;2023-04-15T13:48:09;13.50;71.70
57566;DHT22;63999;43.882;-0.310;2023-04-15T13:50:35;13.50;71.50
57566;DHT22;63999;43.882;-0.310;2023-04-15T13:53:01;13.50;71.80
57566;DHT22;63999;43.882;-0.310;2023-04-15T13:55:27;13.60;71.70
57566;DHT22;63999;43.882;-0.310;2023-04-15T13:57:53;13.70;71.50
57566;DHT22;63999;43.882;-0.310;2023-04-15T14:00:19;13.90;70.80
57566;DHT22;63999;43.882;-0.310;2023-04-15T14:02:45;13.70;71.50
57566;DHT22;63999;43.882;-0.310;2023-04-15T14:05:11;13.70;72.00
57566;DHT22;63999;43.882;-0.310;2023-04-15T14:07:37;13.80;72.00
57566;DHT22;63999;43.882;-0.310;2023-04-15T14:10:03;13.70;69.90
57566;DHT22;63999;43.882;-0.310;2023-04-15T14:12:29;13.50;71.60
57566;DHT22;63999;43.882;-0.310;2023-04-15T14:14:55;13.50;71.30
57566;DHT22;63999;43.882;-0.310;2023-04-15T14:17:21;13.60;71.90
57566;DHT22;63999;43.882;-0.310;2023-04-15T14:19:46;13.60;71.90
57566;DHT22;63999;43.882;-0.310;2023-04-15T14:22:12;13.50;71.50
57566;DHT22;63999;43.882;-0.310;2023-04-15T14:24:38;13.70;71.20
57566;DHT22;63999;43.882;-0.310;2023-04-15T14:27:04;13.80;71.20
57566;DHT22;63999;43.882;-0.310;2023-04-15T14:29:30;13.90;70.50
57566;DHT22;63999;43.882;-0.310;2023-04-15T14:31:56;13.70;71.40
57566;DHT22;63999;43.882;-0.310;2023-04-15T14:34:23;13.90;70.90
57566;DHT22;63999;43.882;-0.310;2023-04-15T14:36:50;13.80;71.10
57566;DHT22;63999;43.882;-0.310;2023-04-15T14:39:18;14.10;70.10
57566;DHT22;63999;43.882;-0.310;2023-04-15T14:41:44;14.10;69.80
57566;DHT22;63999;43.882;-0.310;2023-04-15T14:44:10;14.00;69.70
57566;DHT22;63999;43.882;-0.310;2023-04-15T14:46:37;13.90;70.80
57566;DHT22;63999;43.882;-0.310;2023-04-15T14:49:03;13.80;70.10
57566;DHT22;63999;43.882;-0.310;2023-04-15T14:51:30;13.90;71.30
57566;DHT22;63999;43.882;-0.310;2023-04-15T14:53:56;13.90;70.90
57566;DHT22;63999;43.882;-0.310;2023-04-15T14:56:22;13.90;70.50
57566;DHT22;63999;43.882;-0.310;2023-04-15T14:58:47;13.80;71.00
57566;DHT22;63999;43.882;-0.310;2023-04-15T15:01:14;13.80;70.70
57566;DHT22;63999;43.882;-0.310;2023-04-15T15:03:40;14.10;69.70
57566;DHT22;63999;43.882;-0.310;2023-04-15T15:06:06;14.20;71.00
57566;DHT22;63999;43.882;-0.310;2023-04-15T15:08:31;14.10;70.20
57566;DHT22;63999;43.882;-0.310;2023-04-15T15:10:57;14.00;70.90
57566;DHT22;63999;43.882;-0.310;2023-04-15T15:13:23;14.00;70.50
57566;DHT22;63999;43.882;-0.310;2023-04-15T15:15:50;14.10;69.70
57566;DHT22;63999;43.882;-0.310;2023-04-15T15:18:16;13.90;70.40
57566;DHT22;63999;43.882;-0.310;2023-04-15T15:20:43;14.00;70.20
57566;DHT22;63999;43.882;-0.310;2023-04-15T15:23:09;14.20;68.90
57566;DHT22;63999;43.882;-0.310;2023-04-15T15:25:35;14.10;69.60
57566;DHT22;63999;43.882;-0.310;2023-04-15T15:28:01;14.00;70.50
57566;DHT22;63999;43.882;-0.310;2023-04-15T15:30:26;14.10;70.70
57566;DHT22;63999;43.882;-0.310;2023-04-15T15:32:52;14.20;70.60
57566;DHT22;63999;43.882;-0.310;2023-04-15T15:35:18;14.20;70.20
57566;DHT22;63999;43.882;-0.310;2023-04-15T15:37:44;14.20;70.50